Time;durP1;ratioP1;P1;durP2;ratioP2;P2;SDS_P1;SDS_P2;PMS_P1;PMS_P2;Temp;Humidity;BMP_temperature;BMP_pressure;BME280_temperature;BME280_humidity;BME280_pressure;Samples;Min_cycle;Max_cycle;Signal;HPM_P1;HPM_P2
2022/04/07 00:00:10;;;;;;;2.60;1.30;;;;;;;;;;4955003;28;20047;-67
2022/04/07 00:02:36;;;;;;;1.13;1.00;;;;;;;;;;4955074;28;20076;-68
2022/04/07 00:05:03;;;;;;;1.05;0.90;;;;;;;;;;4955160;29;20055;-67
2022/04/07 00:07:30;;;;;;;1.50;1.20;;;;;;;;;;4955437;28;20442;-67
2022/04/07 00:09:56;;;;;;;1.33;1.00;;;;;;;;;;4969117;28;20101;-67
2022/04/07 00:12:23;;;;;;;0.90;0.90;;;;;;;;;;4974039;28;20057;-67
2022/04/07 00:14:50;;;;;;;1.20;1.00;;;;;;;;;;4973882;28;20093;-67
2022/04/07 00:17:17;;;;;;;1.50;1.25;;;;;;;;;;4972952;28;20057;-67
2022/04/07 00:19:43;;;;;;;1.08;1.00;;;;;;;;;;4955079;29;20055;-67
2022/04/07 00:22:10;;;;;;;1.92;1.02;;;;;;;;;;4954777;28;20055;-67
2022/04/07 00:24:36;;;;;;;0.80;0.80;;;;;;;;;;4954492;29;20335;-67
2022/04/07 00:27:03;;;;;;;8.02;1.17;;;;;;;;;;4954661;29;20055;-67
2022/04/07 00:29:30;;;;;;;1.83;1.35;;;;;;;;;;4954581;29;20463;-67
2022/04/07 00:31:57;;;;;;;1.00;0.90;;;;;;;;;;4954454;28;20055;-67
2022/04/07 00:34:24;;;;;;;0.80;0.80;;;;;;;;;;4954986;28;20138;-67
2022/04/07 00:36:51;;;;;;;0.98;0.82;;;;;;;;;;4954537;28;20069;-67
2022/04/07 00:39:17;;;;;;;1.38;1.17;;;;;;;;;;4954598;28;20442;-67
2022/04/07 00:41:45;;;;;;;1.70;1.10;;;;;;;;;;4954098;28;20502;-67
2022/04/07 00:44:13;;;;;;;1.05;0.90;;;;;;;;;;4954394;29;20055;-67
2022/04/07 00:46:40;;;;;;;1.20;1.10;;;;;;;;;;4954255;29;20142;-67
2022/04/07 00:49:07;;;;;;;2.45;1.00;;;;;;;;;;4965406;28;20061;-67
2022/04/07 00:51:35;;;;;;;1.05;0.88;;;;;;;;;;4973478;28;20402;-68
2022/04/07 00:54:01;;;;;;;1.23;1.00;;;;;;;;;;4973280;28;20062;-68
2022/04/07 00:56:28;;;;;;;2.33;1.10;;;;;;;;;;4973720;28;20429;-68
2022/04/07 00:58:55;;;;;;;1.80;0.77;;;;;;;;;;4960304;28;20058;-67
2022/04/07 01:01:23;;;;;;;1.38;1.10;;;;;;;;;;4954180;28;20055;-67
2022/04/07 01:03:50;;;;;;;2.03;0.80;;;;;;;;;;4937107;29;20061;-67
2022/04/07 01:06:20;;;;;;;0.90;0.70;;;;;;;;;;4952872;28;20051;-67
2022/04/07 01:08:47;;;;;;;0.73;0.70;;;;;;;;;;4965818;28;20047;-67
2022/04/07 01:11:14;;;;;;;1.30;0.90;;;;;;;;;;4972998;28;20061;-67
2022/04/07 01:13:45;;;;;;;2.75;1.02;;;;;;;;;;4973041;28;20118;-67
2022/04/07 01:16:12;;;;;;;1.10;0.80;;;;;;;;;;4973281;28;20232;-67
2022/04/07 01:18:40;;;;;;;1.75;1.65;;;;;;;;;;4964608;28;20055;-67
2022/04/07 01:21:08;;;;;;;1.33;0.90;;;;;;;;;;4953549;28;20545;-67
2022/04/07 01:23:35;;;;;;;1.27;0.77;;;;;;;;;;4952358;29;20059;-67
2022/04/07 01:26:02;;;;;;;0.70;0.70;;;;;;;;;;4954049;28;20499;-67
2022/04/07 01:28:29;;;;;;;0.93;0.88;;;;;;;;;;4953855;28;20043;-67
2022/04/07 01:30:55;;;;;;;1.15;0.88;;;;;;;;;;4953713;28;20335;-67
2022/04/07 01:33:22;;;;;;;0.68;0.68;;;;;;;;;;4953613;28;20058;-67
2022/04/07 01:35:49;;;;;;;1.90;0.50;;;;;;;;;;4951326;29;20059;-67
2022/04/07 01:38:16;;;;;;;1.00;0.70;;;;;;;;;;4952604;28;20486;-67
2022/04/07 01:40:43;;;;;;;0.65;0.65;;;;;;;;;;4955789;28;20064;-67
2022/04/07 01:43:10;;;;;;;0.95;0.60;;;;;;;;;;4971370;28;20055;-67
2022/04/07 01:45:36;;;;;;;0.73;0.63;;;;;;;;;;4971779;28;20054;-67
2022/04/07 01:48:03;;;;;;;1.50;0.65;;;;;;;;;;4971451;28;20102;-67
2022/04/07 01:50:30;;;;;;;1.42;0.70;;;;;;;;;;4972826;28;20525;-67
2022/04/07 01:52:57;;;;;;;0.60;0.50;;;;;;;;;;4955564;28;20414;-67
2022/04/07 01:55:25;;;;;;;0.60;0.60;;;;;;;;;;4973029;28;20051;-67
2022/04/07 01:57:51;;;;;;;0.50;0.50;;;;;;;;;;4955502;28;20047;-67
2022/04/07 02:00:18;;;;;;;1.23;0.65;;;;;;;;;;4971657;28;20054;-67
2022/04/07 02:02:45;;;;;;;0.50;0.50;;;;;;;;;;4962644;28;20051;-67
2022/04/07 02:05:13;;;;;;;0.77;0.60;;;;;;;;;;4953362;29;20051;-67
2022/04/07 02:07:42;;;;;;;0.50;0.50;;;;;;;;;;4965860;28;20047;-67
2022/04/07 02:10:10;;;;;;;0.50;0.47;;;;;;;;;;4972820;28;20118;-67
2022/04/07 02:12:37;;;;;;;0.65;0.50;;;;;;;;;;4974664;28;20047;-67
2022/04/07 02:15:05;;;;;;;2.00;0.70;;;;;;;;;;4976425;28;20059;-67
2022/04/07 02:17:32;;;;;;;0.93;0.60;;;;;;;;;;4964480;28;20051;-67
2022/04/07 02:20:00;;;;;;;1.55;0.60;;;;;;;;;;4956847;28;20138;-67
2022/04/07 02:22:28;;;;;;;1.45;0.68;;;;;;;;;;4956789;28;20188;-67
2022/04/07 02:24:56;;;;;;;1.33;0.88;;;;;;;;;;4956636;29;20055;-67
2022/04/07 02:27:23;;;;;;;1.27;0.52;;;;;;;;;;4956959;28;20418;-67
2022/04/07 02:29:50;;;;;;;1.13;0.63;;;;;;;;;;4956825;28;20047;-67
2022/04/07 02:32:16;;;;;;;2.05;0.70;;;;;;;;;;4956616;28;20144;-67
2022/04/07 02:34:43;;;;;;;1.52;0.68;;;;;;;;;;4956647;28;20088;-67
2022/04/07 02:37:10;;;;;;;1.27;0.60;;;;;;;;;;4956576;29;20525;-67
2022/04/07 02:39:37;;;;;;;1.50;0.65;;;;;;;;;;4956669;28;20082;-68
2022/04/07 02:42:04;;;;;;;1.67;0.80;;;;;;;;;;4956436;28;20520;-67
2022/04/07 02:44:30;;;;;;;0.60;0.60;;;;;;;;;;4956403;28;20047;-67
2022/04/07 02:46:57;;;;;;;0.57;0.50;;;;;;;;;;4962979;28;20069;-67
2022/04/07 02:49:24;;;;;;;0.60;0.50;;;;;;;;;;4975832;28;20058;-67
2022/04/07 02:51:51;;;;;;;1.77;0.70;;;;;;;;;;4975547;28;20066;-67
2022/04/07 02:54:17;;;;;;;2.15;0.73;;;;;;;;;;4975661;28;20055;-67
2022/04/07 02:56:44;;;;;;;2.90;0.82;;;;;;;;;;4975299;28;20474;-67
2022/04/07 02:59:11;;;;;;;0.45;0.45;;;;;;;;;;4975126;28;20504;-67
2022/04/07 03:01:37;;;;;;;0.75;0.70;;;;;;;;;;4975264;28;20493;-67
2022/04/07 03:04:04;;;;;;;0.90;0.75;;;;;;;;;;4975624;28;20054;-67
2022/04/07 03:06:31;;;;;;;0.88;0.70;;;;;;;;;;4975551;28;20046;-67
2022/04/07 03:08:57;;;;;;;0.77;0.73;;;;;;;;;;4975504;28;20437;-67
2022/04/07 03:11:24;;;;;;;0.90;0.70;;;;;;;;;;4975221;28;20061;-67
2022/04/07 03:13:50;;;;;;;1.00;0.90;;;;;;;;;;4975255;28;20050;-68
2022/04/07 03:16:17;;;;;;;1.40;0.70;;;;;;;;;;4975599;28;20051;-67
2022/04/07 03:18:44;;;;;;;1.05;0.63;;;;;;;;;;4975203;28;20043;-67
2022/04/07 03:21:10;;;;;;;1.08;0.80;;;;;;;;;;4974707;28;20444;-67
2022/04/07 03:23:37;;;;;;;0.95;0.52;;;;;;;;;;4973723;28;20046;-67
2022/04/07 03:26:03;;;;;;;1.05;0.52;;;;;;;;;;4974956;28;20047;-67
2022/04/07 03:28:30;;;;;;;0.47;0.47;;;;;;;;;;4957290;28;20102;-67
2022/04/07 03:30:57;;;;;;;0.75;0.40;;;;;;;;;;4955704;28;20051;-67
2022/04/07 03:33:23;;;;;;;0.85;0.40;;;;;;;;;;4955743;28;20051;-67
2022/04/07 03:35:50;;;;;;;0.77;0.70;;;;;;;;;;4955718;28;20054;-67
2022/04/07 03:38:17;;;;;;;2.17;0.80;;;;;;;;;;4955618;29;20098;-67
2022/04/07 03:40:43;;;;;;;1.00;0.65;;;;;;;;;;4955227;28;20095;-67
2022/04/07 03:43:10;;;;;;;1.52;0.82;;;;;;;;;;4955282;28;20055;-67
2022/04/07 03:45:37;;;;;;;1.55;0.30;;;;;;;;;;4955727;29;20055;-67
2022/04/07 03:48:04;;;;;;;0.40;0.40;;;;;;;;;;4958364;28;20494;-67
2022/04/07 03:50:30;;;;;;;2.78;0.70;;;;;;;;;;4971358;28;20058;-67
2022/04/07 03:52:57;;;;;;;2.75;0.60;;;;;;;;;;4968822;28;20569;-67
2022/04/07 03:55:24;;;;;;;0.93;0.68;;;;;;;;;;4965371;28;20057;-67
2022/04/07 03:57:50;;;;;;;1.02;0.70;;;;;;;;;;4965968;28;20051;-67
2022/04/07 04:00:18;;;;;;;2.38;0.55;;;;;;;;;;4963021;28;20058;-67
2022/04/07 04:02:44;;;;;;;0.68;0.40;;;;;;;;;;4964285;28;20098;-67
2022/04/07 04:05:11;;;;;;;0.68;0.50;;;;;;;;;;4968228;28;20055;-67
2022/04/07 04:07:38;;;;;;;0.60;0.60;;;;;;;;;;4963765;28;20422;-67
2022/04/07 04:10:05;;;;;;;1.85;0.70;;;;;;;;;;4965649;28;20050;-67
2022/04/07 04:12:32;;;;;;;1.08;0.73;;;;;;;;;;4965091;28;20082;-67
2022/04/07 04:14:58;;;;;;;0.70;0.70;;;;;;;;;;4969012;28;20054;-67
2022/04/07 04:17:27;;;;;;;0.70;0.55;;;;;;;;;;4973717;28;20513;-67
2022/04/07 04:19:54;;;;;;;0.40;0.40;;;;;;;;;;4973819;28;20113;-67
2022/04/07 04:22:20;;;;;;;1.48;0.60;;;;;;;;;;4974050;28;20434;-67
2022/04/07 04:24:48;;;;;;;1.40;0.40;;;;;;;;;;4973705;28;20109;-67
2022/04/07 04:27:14;;;;;;;1.55;0.55;;;;;;;;;;4960187;28;20077;-67
2022/04/07 04:29:43;;;;;;;0.50;0.50;;;;;;;;;;4955078;28;20090;-67
2022/04/07 04:32:10;;;;;;;0.82;0.80;;;;;;;;;;4959396;28;20588;-67
2022/04/07 04:34:36;;;;;;;2.17;0.75;;;;;;;;;;4973654;28;20315;-67
2022/04/07 04:37:03;;;;;;;1.38;0.80;;;;;;;;;;4973674;28;20066;-67
2022/04/07 04:39:36;;;;;;;0.60;0.52;;;;;;;;;;4974037;28;20497;-67
2022/04/07 04:42:04;;;;;;;0.65;0.50;;;;;;;;;;4973757;28;20469;-67
2022/04/07 04:44:31;;;;;;;1.27;0.50;;;;;;;;;;4973600;28;20050;-67
2022/04/07 04:46:57;;;;;;;0.80;0.50;;;;;;;;;;4973722;28;20113;-67
2022/04/07 04:49:24;;;;;;;1.27;0.50;;;;;;;;;;4973662;28;20113;-68
2022/04/07 04:51:50;;;;;;;0.82;0.63;;;;;;;;;;4973427;28;20560;-67
2022/04/07 04:54:18;;;;;;;0.73;0.73;;;;;;;;;;4971790;28;20047;-67
2022/04/07 04:56:44;;;;;;;0.90;0.50;;;;;;;;;;4973566;28;20079;-67
2022/04/07 04:59:11;;;;;;;0.93;0.60;;;;;;;;;;4973311;28;20510;-67
2022/04/07 05:01:38;;;;;;;1.80;0.63;;;;;;;;;;4958438;28;20047;-68
2022/04/07 05:04:05;;;;;;;1.38;1.00;;;;;;;;;;4953816;28;20047;-67
2022/04/07 05:06:31;;;;;;;0.60;0.40;;;;;;;;;;4953235;29;20047;-67
2022/04/07 05:08:58;;;;;;;0.90;0.40;;;;;;;;;;4954050;29;20415;-67
2022/04/07 05:11:25;;;;;;;0.45;0.38;;;;;;;;;;4966029;28;20572;-67
2022/04/07 05:13:52;;;;;;;1.00;0.60;;;;;;;;;;4973600;28;20274;-67
2022/04/07 05:16:18;;;;;;;1.48;0.73;;;;;;;;;;4972550;28;20050;-67
2022/04/07 05:18:48;;;;;;;0.50;0.50;;;;;;;;;;4973336;28;20043;-67
2022/04/07 05:21:15;;;;;;;0.60;0.50;;;;;;;;;;4973006;28;20568;-69
2022/04/07 05:23:42;;;;;;;1.10;0.57;;;;;;;;;;4973565;28;20050;-69
2022/04/07 05:26:09;;;;;;;0.77;0.47;;;;;;;;;;4965230;28;20094;-69
2022/04/07 05:28:36;;;;;;;1.33;0.60;;;;;;;;;;4953847;29;20058;-69
2022/04/07 05:31:02;;;;;;;0.47;0.47;;;;;;;;;;4953791;28;20059;-69
2022/04/07 05:33:29;;;;;;;1.05;0.55;;;;;;;;;;4953632;29;20499;-69
2022/04/07 05:35:56;;;;;;;1.42;0.80;;;;;;;;;;4956505;28;20054;-72
2022/04/07 05:38:22;;;;;;;0.38;0.38;;;;;;;;;;4971150;28;20102;-71
2022/04/07 05:40:49;;;;;;;1.95;0.50;;;;;;;;;;4970877;28;20062;-72
2022/04/07 05:43:16;;;;;;;1.00;0.60;;;;;;;;;;4970963;28;20054;-71
2022/04/07 05:45:45;;;;;;;0.60;0.40;;;;;;;;;;4970759;28;20054;-71
2022/04/07 05:48:12;;;;;;;0.40;0.40;;;;;;;;;;4974211;28;20069;-71
2022/04/07 05:50:39;;;;;;;0.47;0.40;;;;;;;;;;4974933;28;20047;-71
2022/04/07 05:53:06;;;;;;;0.68;0.50;;;;;;;;;;4974796;28;20498;-72
2022/04/07 05:55:34;;;;;;;0.40;0.40;;;;;;;;;;4974166;28;20051;-71
2022/04/07 05:58:04;;;;;;;0.60;0.47;;;;;;;;;;4974598;28;20119;-71
2022/04/07 06:00:31;;;;;;;1.33;0.60;;;;;;;;;;4974071;28;20109;-71
2022/04/07 06:02:58;;;;;;;1.05;0.40;;;;;;;;;;4974808;28;20055;-71
2022/04/07 06:05:25;;;;;;;0.68;0.40;;;;;;;;;;4974534;28;20054;-72
2022/04/07 06:07:59;;;;;;;0.40;0.40;;;;;;;;;;4974752;28;20057;-71
2022/04/07 06:10:26;;;;;;;0.38;0.38;;;;;;;;;;4974598;28;20055;-72
2022/04/07 06:12:53;;;;;;;2.05;0.55;;;;;;;;;;4974213;28;20426;-72
2022/04/07 06:15:20;;;;;;;1.65;0.22;;;;;;;;;;4973694;28;20066;-71
2022/04/07 06:17:50;;;;;;;0.57;0.30;;;;;;;;;;4955169;28;20106;-72
2022/04/07 06:20:17;;;;;;;0.40;0.40;;;;;;;;;;4955152;29;20051;-72
2022/04/07 06:22:44;;;;;;;0.38;0.30;;;;;;;;;;4954674;28;20477;-71
2022/04/07 06:25:11;;;;;;;0.20;0.20;;;;;;;;;;4955225;28;20055;-71
2022/04/07 06:27:43;;;;;;;0.95;0.28;;;;;;;;;;4954987;28;20081;-71
2022/04/07 06:30:12;;;;;;;1.08;0.30;;;;;;;;;;4954951;28;20083;-72
2022/04/07 06:32:39;;;;;;;0.30;0.13;;;;;;;;;;4954788;28;20051;-71
2022/04/07 06:35:07;;;;;;;0.20;0.20;;;;;;;;;;4953305;28;20051;-69
2022/04/07 06:37:59;;;;;;;0.90;0.50;;;;;;;;;;4963916;28;20059;-70
2022/04/07 06:40:30;;;;;;;0.47;0.20;;;;;;;;;;4977530;28;20054;-69
2022/04/07 06:42:58;;;;;;;0.30;0.20;;;;;;;;;;4983127;28;20054;-70
2022/04/07 06:45:25;;;;;;;0.68;0.40;;;;;;;;;;4980901;28;20506;-66
2022/04/07 06:47:52;;;;;;;1.60;0.30;;;;;;;;;;4980556;28;20463;-67
2022/04/07 06:50:20;;;;;;;1.55;0.30;;;;;;;;;;4979100;28;20050;-66
2022/04/07 06:52:47;;;;;;;1.85;0.20;;;;;;;;;;4982521;28;20430;-68
2022/04/07 06:55:14;;;;;;;0.93;0.35;;;;;;;;;;4985978;28;20046;-69
2022/04/07 06:57:57;;;;;;;0.85;0.30;;;;;;;;;;4981688;28;20057;-68
2022/04/07 07:00:29;;;;;;;0.52;0.35;;;;;;;;;;4984045;28;20485;-70
2022/04/07 07:02:57;;;;;;;0.40;0.40;;;;;;;;;;4980691;28;20051;-71
2022/04/07 07:05:27;;;;;;;0.88;0.30;;;;;;;;;;4985171;28;20053;-76
2022/04/07 07:07:54;;;;;;;0.55;0.20;;;;;;;;;;4973824;28;20054;-76
2022/04/07 07:10:22;;;;;;;0.35;0.25;;;;;;;;;;4969561;28;20046;-70
2022/04/07 07:12:49;;;;;;;1.98;0.20;;;;;;;;;;4985731;28;20050;-68
2022/04/07 07:15:16;;;;;;;0.50;0.22;;;;;;;;;;4984665;28;20138;-68
2022/04/07 07:17:43;;;;;;;0.22;0.22;;;;;;;;;;4986427;28;20113;-67
2022/04/07 07:20:11;;;;;;;0.28;0.28;;;;;;;;;;4981327;28;20494;-67
2022/04/07 07:22:38;;;;;;;0.20;0.20;;;;;;;;;;4982355;28;20054;-70
2022/04/07 07:25:06;;;;;;;0.20;0.20;;;;;;;;;;4982322;28;20101;-65
2022/04/07 07:27:46;;;;;;;0.13;0.13;;;;;;;;;;4962854;28;20050;-69
2022/04/07 07:30:15;;;;;;;0.80;0.20;;;;;;;;;;5000236;28;20113;-70
2022/04/07 07:32:46;;;;;;;0.40;0.28;;;;;;;;;;5003403;28;20050;-68
2022/04/07 07:35:14;;;;;;;3.60;0.30;;;;;;;;;;5003179;28;20563;-68
2022/04/07 07:37:54;;;;;;;0.50;0.30;;;;;;;;;;4998078;28;20054;-68
2022/04/07 07:40:24;;;;;;;1.20;0.30;;;;;;;;;;5001936;28;20064;-68
2022/04/07 07:42:56;;;;;;;2.72;0.32;;;;;;;;;;5003332;28;20054;-68
2022/04/07 07:45:24;;;;;;;2.65;0.20;;;;;;;;;;4996612;28;20398;-68
2022/04/07 07:48:12;;;;;;;0.60;0.17;;;;;;;;;;5005919;28;20169;-69
2022/04/07 07:50:45;;;;;;;0.40;0.10;;;;;;;;;;5000821;28;20057;-68
2022/04/07 07:53:17;;;;;;;1.08;0.35;;;;;;;;;;5002305;28;20043;-68
2022/04/07 07:55:43;;;;;;;0.30;0.25;;;;;;;;;;5002696;28;20397;-68
2022/04/07 07:58:10;;;;;;;1.40;0.20;;;;;;;;;;5002484;28;20062;-68
2022/04/07 08:00:37;;;;;;;0.30;0.20;;;;;;;;;;5002614;28;20073;-67
2022/04/07 08:03:05;;;;;;;2.05;0.30;;;;;;;;;;5008665;28;20153;-68
2022/04/07 08:05:31;;;;;;;1.25;0.35;;;;;;;;;;5001529;28;20054;-66
2022/04/07 08:07:58;;;;;;;1.50;0.20;;;;;;;;;;5005073;28;20052;-68
2022/04/07 08:10:25;;;;;;;2.15;0.35;;;;;;;;;;4998261;28;20038;-64
2022/04/07 08:12:51;;;;;;;0.47;0.28;;;;;;;;;;5004915;28;20053;-66
2022/04/07 08:15:19;;;;;;;1.00;0.43;;;;;;;;;;5002108;28;20046;-65
2022/04/07 08:17:46;;;;;;;0.68;0.68;;;;;;;;;;5004348;28;20061;-66
2022/04/07 08:20:13;;;;;;;0.47;0.32;;;;;;;;;;5004300;28;20053;-66
2022/04/07 08:22:39;;;;;;;1.40;0.30;;;;;;;;;;5002256;28;20532;-68
2022/04/07 08:25:06;;;;;;;0.40;0.30;;;;;;;;;;4998978;28;20042;-70
2022/04/07 08:27:33;;;;;;;2.83;0.35;;;;;;;;;;5003630;28;20065;-67
2022/04/07 08:29:59;;;;;;;1.45;0.20;;;;;;;;;;5005730;28;20053;-66
2022/04/07 08:32:26;;;;;;;1.23;0.30;;;;;;;;;;4986900;28;20053;-73
2022/04/07 08:34:53;;;;;;;0.93;0.30;;;;;;;;;;4997989;28;20060;-71
2022/04/07 08:37:20;;;;;;;0.60;0.20;;;;;;;;;;5002646;28;20448;-72
2022/04/07 08:39:47;;;;;;;1.27;0.20;;;;;;;;;;5004692;28;20046;-71
2022/04/07 08:42:13;;;;;;;0.80;0.50;;;;;;;;;;5000163;28;20042;-70
2022/04/07 08:44:40;;;;;;;0.30;0.30;;;;;;;;;;5001857;28;20508;-70
2022/04/07 08:47:07;;;;;;;0.50;0.35;;;;;;;;;;5002996;28;20097;-72
2022/04/07 08:49:34;;;;;;;0.28;0.25;;;;;;;;;;5004626;28;20054;-74
2022/04/07 08:52:00;;;;;;;0.88;0.52;;;;;;;;;;5002074;28;20050;-69
2022/04/07 08:54:31;;;;;;;2.95;0.40;;;;;;;;;;5003991;28;20049;-78
2022/04/07 08:56:57;;;;;;;0.98;0.45;;;;;;;;;;4984396;28;20054;-69
2022/04/07 08:59:24;;;;;;;0.85;0.28;;;;;;;;;;5002375;28;20627;-70
2022/04/07 09:01:51;;;;;;;2.83;0.40;;;;;;;;;;5003982;28;20515;-67
2022/04/07 09:04:20;;;;;;;0.40;0.20;;;;;;;;;;4981736;28;20046;-67
2022/04/07 09:06:48;;;;;;;1.35;0.47;;;;;;;;;;5000013;28;20480;-67
2022/04/07 09:09:19;;;;;;;0.77;0.30;;;;;;;;;;5002567;28;20493;-77
2022/04/07 09:11:46;;;;;;;1.02;0.40;;;;;;;;;;5003212;28;20061;-73
2022/04/07 09:14:13;;;;;;;0.93;0.28;;;;;;;;;;5002618;28;20054;-72
2022/04/07 09:16:40;;;;;;;1.08;0.40;;;;;;;;;;5004592;28;20057;-71
2022/04/07 09:19:08;;;;;;;0.17;0.15;;;;;;;;;;5002267;28;20049;-73
2022/04/07 09:21:35;;;;;;;2.28;0.10;;;;;;;;;;5004061;28;20501;-73
2022/04/07 09:24:07;;;;;;;1.65;0.20;;;;;;;;;;5002750;28;20513;-73
2022/04/07 09:26:36;;;;;;;4.55;1.33;;;;;;;;;;5002083;28;20057;-70
2022/04/07 09:29:10;;;;;;;1.42;0.30;;;;;;;;;;4997821;28;20536;-71
2022/04/07 09:31:40;;;;;;;0.47;0.22;;;;;;;;;;5000360;28;20050;-72
2022/04/07 09:34:07;;;;;;;0.10;0.10;;;;;;;;;;5002271;28;20050;-72
2022/04/07 09:36:34;;;;;;;0.40;0.38;;;;;;;;;;5002919;28;20050;-70
2022/04/07 09:39:02;;;;;;;1.10;0.52;;;;;;;;;;5001406;28;20061;-73
2022/04/07 09:41:30;;;;;;;0.95;0.10;;;;;;;;;;5004238;28;20103;-74
2022/04/07 09:43:58;;;;;;;0.20;0.20;;;;;;;;;;5002268;28;20456;-72
2022/04/07 09:46:33;;;;;;;1.13;0.10;;;;;;;;;;5002884;28;20053;-66
2022/04/07 09:49:05;;;;;;;0.13;0.13;;;;;;;;;;4999844;28;20049;-68
2022/04/07 09:51:46;;;;;;;2.28;0.20;;;;;;;;;;5001836;28;20060;-73
2022/04/07 09:54:15;;;;;;;0.52;0.20;;;;;;;;;;4995458;28;20068;-74
2022/04/07 09:56:43;;;;;;;0.10;0.10;;;;;;;;;;4998996;28;20058;-71
2022/04/07 09:59:12;;;;;;;0.77;0.20;;;;;;;;;;5003463;28;20128;-65
2022/04/07 10:01:39;;;;;;;1.63;0.30;;;;;;;;;;4981077;28;20502;-66
2022/04/07 10:04:12;;;;;;;0.38;0.22;;;;;;;;;;4996803;28;20054;-75
2022/04/07 10:06:41;;;;;;;0.73;0.30;;;;;;;;;;4987026;28;20141;-65
2022/04/07 10:09:09;;;;;;;0.10;0.10;;;;;;;;;;4983644;28;20049;-65
2022/04/07 10:11:36;;;;;;;0.20;0.10;;;;;;;;;;4998481;28;20058;-76
2022/04/07 10:14:03;;;;;;;2.53;0.55;;;;;;;;;;4983105;28;20047;-68
2022/04/07 10:16:48;;;;;;;2.30;0.50;;;;;;;;;;5001320;28;20488;-70
2022/04/07 10:19:34;;;;;;;0.68;0.40;;;;;;;;;;5003852;28;20046;-72
2022/04/07 10:22:10;;;;;;;0.35;0.20;;;;;;;;;;4992095;28;20058;-73
2022/04/07 10:24:50;;;;;;;1.38;0.40;;;;;;;;;;4998895;28;20053;-71
2022/04/07 10:27:33;;;;;;;1.27;0.30;;;;;;;;;;5015084;28;20054;-72
2022/04/07 10:30:13;;;;;;;1.65;0.20;;;;;;;;;;4996305;28;20121;-66
2022/04/07 10:32:44;;;;;;;0.73;0.50;;;;;;;;;;5001854;28;20053;-65
2022/04/07 10:35:27;;;;;;;0.38;0.30;;;;;;;;;;5006195;28;20054;-71
2022/04/07 10:37:53;;;;;;;0.30;0.30;;;;;;;;;;5002094;28;20050;-72
2022/04/07 10:40:36;;;;;;;0.43;0.30;;;;;;;;;;5003380;28;20073;-73
2022/04/07 10:43:17;;;;;;;0.65;0.40;;;;;;;;;;5005110;28;20050;-73
2022/04/07 10:45:46;;;;;;;1.83;0.17;;;;;;;;;;5003784;28;20050;-71
2022/04/07 10:48:24;;;;;;;0.88;0.22;;;;;;;;;;5011139;28;20049;-71
2022/04/07 10:50:55;;;;;;;0.30;0.20;;;;;;;;;;5002422;28;20043;-70
2022/04/07 10:53:28;;;;;;;1.63;0.32;;;;;;;;;;5004011;28;20092;-70
2022/04/07 10:56:07;;;;;;;0.35;0.20;;;;;;;;;;5004602;28;20049;-72
2022/04/07 10:58:38;;;;;;;1.27;0.10;;;;;;;;;;5002282;28;20090;-66
2022/04/07 11:01:04;;;;;;;2.08;0.30;;;;;;;;;;5006058;28;20562;-66
2022/04/07 11:03:31;;;;;;;1.40;0.20;;;;;;;;;;5003660;28;20513;-66
2022/04/07 11:06:04;;;;;;;0.60;0.30;;;;;;;;;;5006180;28;20065;-66
2022/04/07 11:08:31;;;;;;;2.90;0.30;;;;;;;;;;5006145;28;20464;-66
2022/04/07 11:10:57;;;;;;;8.48;0.60;;;;;;;;;;5004404;28;20101;-72
2022/04/07 11:13:53;;;;;;;0.47;0.20;;;;;;;;;;5006628;28;20046;-66
2022/04/07 11:16:25;;;;;;;1.00;0.30;;;;;;;;;;4972478;28;20121;-64
2022/04/07 11:19:00;;;;;;;5.40;0.30;;;;;;;;;;4975138;28;20050;-66
2022/04/07 11:21:27;;;;;;;6.22;0.43;;;;;;;;;;4975078;28;20051;-67
2022/04/07 11:23:54;;;;;;;1.42;0.30;;;;;;;;;;4987235;23;20060;-66
2022/04/07 11:26:25;;;;;;;0.10;0.10;;;;;;;;;;5031648;28;20466;-66
2022/04/07 11:29:05;;;;;;;2.17;0.30;;;;;;;;;;5031755;28;20099;-66
2022/04/07 11:31:48;;;;;;;3.95;0.35;;;;;;;;;;5030745;28;20045;-67
2022/04/07 11:35:01;;;;;;;0.28;0.20;;;;;;;;;;5031621;28;20057;-67
2022/04/07 11:37:28;;;;;;;0.73;0.35;;;;;;;;;;5016904;28;20416;-66
2022/04/07 11:39:54;;;;;;;1.60;0.20;;;;;;;;;;5032350;28;20050;-66
2022/04/07 11:42:22;;;;;;;1.38;0.50;;;;;;;;;;5032627;28;20053;-66
2022/04/07 11:44:56;;;;;;;2.38;0.30;;;;;;;;;;5013838;28;20140;-66
2022/04/07 11:47:30;;;;;;;1.35;0.52;;;;;;;;;;5031389;28;20052;-66
2022/04/07 11:49:57;;;;;;;2.13;0.35;;;;;;;;;;5031287;28;20053;-66
2022/04/07 11:52:28;;;;;;;0.38;0.20;;;;;;;;;;5030927;28;20103;-65
2022/04/07 11:54:57;;;;;;;2.30;0.30;;;;;;;;;;5031099;28;20057;-64
2022/04/07 11:57:25;;;;;;;0.40;0.40;;;;;;;;;;5032410;28;20119;-66
2022/04/07 12:00:05;;;;;;;0.30;0.20;;;;;;;;;;5016806;28;20071;-69
2022/04/07 12:02:32;;;;;;;0.73;0.30;;;;;;;;;;5007746;28;20045;-66
2022/04/07 12:05:05;;;;;;;0.82;0.30;;;;;;;;;;5023951;28;20041;-72
2022/04/07 12:07:32;;;;;;;;;;;;;;;;;;5017226;28;20513;-68
2022/04/07 12:10:10;;;;;;;4.55;0.30;;;;;;;;;;5020700;28;19927;-65
2022/04/07 12:12:41;;;;;;;0.57;0.28;;;;;;;;;;5002705;28;20049;-65
2022/04/07 12:15:10;;;;;;;1.45;0.43;;;;;;;;;;5004945;28;20053;-65
2022/04/07 12:17:59;;;;;;;0.70;0.30;;;;;;;;;;5000090;28;20060;-67
2022/04/07 12:20:28;;;;;;;0.60;0.22;;;;;;;;;;5018731;28;20045;-65
2022/04/07 12:23:13;;;;;;;0.85;0.85;;;;;;;;;;5012305;28;20051;-66
2022/04/07 12:25:42;;;;;;;0.93;0.50;;;;;;;;;;4947522;28;2137395;-67
2022/04/07 12:28:10;;;;;;;1.23;0.63;;;;;;;;;;5007290;28;20053;-69
2022/04/07 12:30:50;;;;;;;0.45;0.10;;;;;;;;;;5031556;28;20061;-66
2022/04/07 12:33:44;;;;;;;0.70;0.30;;;;;;;;;;5015651;28;20053;-67
2022/04/07 12:36:16;;;;;;;0.40;0.20;;;;;;;;;;5029830;28;20061;-64
2022/04/07 12:38:59;;;;;;;1.30;0.20;;;;;;;;;;5031970;28;20057;-63
2022/04/07 12:41:39;;;;;;;0.95;0.30;;;;;;;;;;5032336;28;20056;-68
2022/04/07 12:44:08;;;;;;;2.28;0.30;;;;;;;;;;5011530;28;20054;-68
2022/04/07 12:46:47;;;;;;;1.23;0.30;;;;;;;;;;5010134;28;20049;-68
2022/04/07 12:49:21;;;;;;;0.30;0.30;;;;;;;;;;5011295;28;20057;-68
2022/04/07 12:51:59;;;;;;;0.20;0.20;;;;;;;;;;4984040;28;20056;-67
2022/04/07 12:54:25;;;;;;;0.75;0.40;;;;;;;;;;5014762;28;20046;-69
2022/04/07 12:57:13;;;;;;;0.57;0.35;;;;;;;;;;5015650;28;20050;-69
2022/04/07 12:59:44;;;;;;;1.33;0.50;;;;;;;;;;5022583;28;20076;-68
2022/04/07 13:02:10;;;;;;;0.80;0.30;;;;;;;;;;5006840;28;20180;-68
2022/04/07 13:04:53;;;;;;;0.10;0.05;;;;;;;;;;5026055;28;20060;-68
2022/04/07 13:07:21;;;;;;;0.10;0.10;;;;;;;;;;5031087;28;20053;-67
2022/04/07 13:09:48;;;;;;;0.10;0.10;;;;;;;;;;5008369;28;20436;-68
2022/04/07 13:12:16;;;;;;;0.95;0.10;;;;;;;;;;5029347;28;20046;-70
2022/04/07 13:14:43;;;;;;;1.10;0.13;;;;;;;;;;5015361;28;20050;-67
2022/04/07 13:17:12;;;;;;;0.35;0.20;;;;;;;;;;5030672;28;20053;-68
2022/04/07 13:19:39;;;;;;;0.10;0.03;;;;;;;;;;5030535;28;20054;-68
2022/04/07 13:22:06;;;;;;;0.50;0.10;;;;;;;;;;5018055;28;20045;-67
2022/04/07 13:24:34;;;;;;;1.20;0.10;;;;;;;;;;5006536;28;20042;-68
2022/04/07 13:27:05;;;;;;;0.20;0.20;;;;;;;;;;5011614;28;20128;-67
2022/04/07 13:29:37;;;;;;;1.58;0.85;;;;;;;;;;5022139;28;20103;-67
2022/04/07 13:32:07;;;;;;;0.77;0.60;;;;;;;;;;5018135;28;20037;-67
2022/04/07 13:34:36;;;;;;;2.78;0.60;;;;;;;;;;5021893;28;20133;-69
2022/04/07 13:37:05;;;;;;;4.40;0.70;;;;;;;;;;5022046;28;20133;-68
2022/04/07 13:39:34;;;;;;;0.60;0.60;;;;;;;;;;5016081;28;20334;-67
2022/04/07 13:42:08;;;;;;;2.03;0.70;;;;;;;;;;5023154;28;20452;-69
2022/04/07 13:44:35;;;;;;;0.70;0.50;;;;;;;;;;5007747;28;20191;-67
2022/04/07 13:47:07;;;;;;;1.50;0.25;;;;;;;;;;5026918;28;20049;-66
2022/04/07 13:49:35;;;;;;;0.20;0.10;;;;;;;;;;5019226;28;20054;-67
2022/04/07 13:52:02;;;;;;;1.38;0.47;;;;;;;;;;5023278;28;20436;-67
2022/04/07 13:54:30;;;;;;;1.08;0.20;;;;;;;;;;5019691;28;20140;-68
2022/04/07 13:56:58;;;;;;;1.02;0.25;;;;;;;;;;5002217;28;20077;-69
2022/04/07 13:59:24;;;;;;;0.45;0.30;;;;;;;;;;5022786;28;20050;-69
2022/04/07 14:01:52;;;;;;;0.75;0.30;;;;;;;;;;5022656;28;20123;-70
2022/04/07 14:04:22;;;;;;;1.60;0.43;;;;;;;;;;5003162;28;20056;-70
2022/04/07 14:06:50;;;;;;;0.47;0.40;;;;;;;;;;5021087;28;20057;-70
2022/04/07 14:09:20;;;;;;;1.25;0.50;;;;;;;;;;5019768;28;20053;-71
2022/04/07 14:11:48;;;;;;;0.30;0.20;;;;;;;;;;5021826;28;20045;-72
2022/04/07 14:14:17;;;;;;;0.60;0.20;;;;;;;;;;5018505;28;20050;-69
2022/04/07 14:16:50;;;;;;;2.25;0.73;;;;;;;;;;5014180;28;20584;-69
2022/04/07 14:19:17;;;;;;;2.00;0.30;;;;;;;;;;5021819;28;20426;-68
2022/04/07 14:21:44;;;;;;;0.30;0.20;;;;;;;;;;5020218;28;20145;-68
2022/04/07 14:24:16;;;;;;;1.30;0.47;;;;;;;;;;5020108;28;20144;-67
2022/04/07 14:26:45;;;;;;;0.65;0.20;;;;;;;;;;5020645;28;20046;-66
2022/04/07 14:29:17;;;;;;;2.15;0.20;;;;;;;;;;5026556;28;20424;-67
2022/04/07 14:31:44;;;;;;;1.00;0.50;;;;;;;;;;5021903;28;20064;-67
2022/04/07 14:34:12;;;;;;;2.28;0.38;;;;;;;;;;5021124;28;20042;-68
2022/04/07 14:36:45;;;;;;;1.02;0.55;;;;;;;;;;5020488;28;20145;-67
2022/04/07 14:39:14;;;;;;;0.70;0.50;;;;;;;;;;5023160;28;20099;-68
2022/04/07 14:41:42;;;;;;;1.10;0.20;;;;;;;;;;5023071;28;20064;-66
2022/04/07 14:44:13;;;;;;;0.35;0.30;;;;;;;;;;5023516;28;20054;-67
2022/04/07 14:46:40;;;;;;;1.67;0.30;;;;;;;;;;5038492;28;20057;-68
2022/04/07 14:49:08;;;;;;;1.27;0.30;;;;;;;;;;5015708;28;20057;-67
2022/04/07 14:51:53;;;;;;;0.50;0.10;;;;;;;;;;5024987;28;20057;-67
2022/04/07 14:54:20;;;;;;;0.28;0.10;;;;;;;;;;5021712;28;20102;-67